Time;durP1;ratioP1;P1;durP2;ratioP2;P2;SDS_P1;SDS_P2;PMS_P1;PMS_P2;Temp;Humidity;BMP_temperature;BMP_pressure;BME280_temperature;BME280_humidity;BME280_pressure;Samples;Min_cycle;Max_cycle;Signal;HPM_P1;HPM_P2
2023/08/30 00:00:17;;;;;;;8.20;6.65;;;;;;;13.24;100.00;100185.34;7400367;19;20007;-65
2023/08/30 00:02:45;;;;;;;7.07;6.30;;;;;;;13.23;100.00;100189.75;7398305;19;20015;-65
2023/08/30 00:05:14;;;;;;;8.25;6.82;;;;;;;13.23;100.00;100191.53;7400543;19;20034;-65
2023/08/30 00:07:45;;;;;;;7.90;7.10;;;;;;;13.20;100.00;100188.13;7400471;19;20074;-65
2023/08/30 00:10:13;;;;;;;7.78;6.72;;;;;;;13.19;100.00;100193.44;7398308;19;20078;-65
2023/08/30 00:12:42;;;;;;;8.27;6.68;;;;;;;13.19;100.00;100196.06;7399552;19;20027;-66
2023/08/30 00:15:11;;;;;;;7.30;6.63;;;;;;;13.16;100.00;100202.31;7400164;19;20074;-65
2023/08/30 00:17:46;;;;;;;7.20;6.50;;;;;;;13.12;100.00;100206.00;7399428;19;20010;-65
2023/08/30 00:20:21;;;;;;;7.57;6.78;;;;;;;13.10;100.00;100202.56;7397204;19;20011;-65
2023/08/30 00:22:52;;;;;;;8.00;6.85;;;;;;;13.09;100.00;100200.88;7399987;19;20166;-65
2023/08/30 00:25:21;;;;;;;7.95;7.25;;;;;;;13.08;100.00;100201.78;7400339;19;20077;-66
2023/08/30 00:27:49;;;;;;;10.43;8.23;;;;;;;13.08;100.00;100193.88;7399821;19;20078;-65
2023/08/30 00:30:18;;;;;;;7.65;6.95;;;;;;;13.08;100.00;100207.06;7399338;19;20081;-65
2023/08/30 00:32:46;;;;;;;10.52;7.93;;;;;;;13.08;100.00;100209.69;7399384;19;20081;-65
2023/08/30 00:35:15;;;;;;;7.95;7.22;;;;;;;13.06;100.00;100211.50;7399625;19;20018;-65
2023/08/30 00:37:43;;;;;;;8.00;7.25;;;;;;;13.06;100.00;100208.03;7396757;19;20432;-65
2023/08/30 00:40:15;;;;;;;8.65;7.68;;;;;;;13.04;100.00;100208.06;7396873;19;20018;-65
2023/08/30 00:42:43;;;;;;;8.68;7.50;;;;;;;13.05;100.00;100209.78;7398725;19;20414;-65
2023/08/30 00:45:12;;;;;;;8.98;7.93;;;;;;;13.04;100.00;100202.81;7398831;19;20367;-66
2023/08/30 00:47:41;;;;;;;12.25;8.68;;;;;;;13.03;100.00;100215.13;7398844;19;20549;-65
2023/08/30 00:50:10;;;;;;;11.00;8.68;;;;;;;13.03;100.00;100219.56;7398639;19;20074;-65
2023/08/30 00:52:38;;;;;;;9.85;8.93;;;;;;;13.01;100.00;100224.00;7396752;19;20011;-66
2023/08/30 00:55:08;;;;;;;12.35;8.35;;;;;;;13.01;100.00;100216.09;7396827;19;20035;-65
2023/08/30 00:57:40;;;;;;;10.15;8.82;;;;;;;13.00;100.00;100222.28;7398872;19;20082;-65
2023/08/30 01:00:10;;;;;;;10.13;9.13;;;;;;;12.98;100.00;100226.78;7396707;19;20366;-65
2023/08/30 01:02:39;;;;;;;9.85;8.82;;;;;;;12.97;100.00;100228.53;7398510;19;20082;-65
2023/08/30 01:05:08;;;;;;;10.10;9.05;;;;;;;12.96;100.00;100226.81;7398182;19;20022;-66
2023/08/30 01:07:37;;;;;;;9.90;8.13;;;;;;;12.95;100.00;100224.25;7396396;19;20018;-65
2023/08/30 01:10:06;;;;;;;9.82;8.52;;;;;;;12.93;100.00;100226.06;7398369;19;20086;-65
2023/08/30 01:12:42;;;;;;;10.85;8.07;;;;;;;12.90;100.00;100231.47;7396258;19;20029;-65
2023/08/30 01:15:14;;;;;;;8.60;7.72;;;;;;;12.88;100.00;100236.81;7397925;19;20485;-65
2023/08/30 01:17:44;;;;;;;7.88;7.15;;;;;;;12.85;100.00;100231.66;7396654;19;20030;-65
2023/08/30 01:20:18;;;;;;;7.28;6.53;;;;;;;12.84;100.00;100229.97;7395347;19;20014;-65
2023/08/30 01:22:57;;;;;;;7.70;6.93;;;;;;;12.81;100.00;100236.19;7397430;19;20485;-65
2023/08/30 01:25:37;;;;;;;7.63;6.63;;;;;;;12.80;100.00;100231.84;7395684;19;20478;-65
2023/08/30 01:28:10;;;;;;;8.13;7.35;;;;;;;12.80;100.00;100237.13;7398277;19;20023;-65
2023/08/30 01:30:42;;;;;;;7.72;7.00;;;;;;;12.80;100.00;100242.38;7397436;19;20486;-65
2023/08/30 01:33:11;;;;;;;8.00;7.18;;;;;;;12.79;100.00;100242.41;7396699;19;20494;-65
2023/08/30 01:35:42;;;;;;;9.20;7.18;;;;;;;12.81;100.00;100243.22;7395645;19;20014;-65
2023/08/30 01:38:12;;;;;;;9.15;8.25;;;;;;;12.83;100.00;100242.25;7395962;19;20010;-65
2023/08/30 01:40:43;;;;;;;8.50;7.55;;;;;;;12.83;100.00;100239.63;7397377;19;20082;-65
2023/08/30 01:43:17;;;;;;;8.57;7.68;;;;;;;12.85;100.00;100236.91;7395151;19;20072;-65
2023/08/30 01:45:46;;;;;;;8.17;7.27;;;;;;;12.86;100.00;100236.00;7397762;19;20014;-65
2023/08/30 01:48:17;;;;;;;7.97;7.13;;;;;;;12.88;100.00;100236.81;7397179;19;20022;-65
2023/08/30 01:50:46;;;;;;;7.55;6.85;;;;;;;12.88;100.00;100232.38;7396674;19;20420;-65
2023/08/30 01:53:16;;;;;;;7.88;6.57;;;;;;;12.88;100.00;100224.50;7396391;19;20070;-65
2023/08/30 01:55:45;;;;;;;8.50;7.00;;;;;;;12.88;100.00;100227.13;7396647;19;20028;-65
2023/08/30 01:58:17;;;;;;;6.68;6.07;;;;;;;12.86;100.00;100225.47;7396549;19;20017;-65
2023/08/30 02:00:45;;;;;;;7.88;7.18;;;;;;;12.86;100.00;100222.84;7395169;19;20029;-65
2023/08/30 02:03:16;;;;;;;6.97;6.00;;;;;;;12.84;100.00;100215.00;7396156;19;20027;-65
2023/08/30 02:05:54;;;;;;;8.35;6.65;;;;;;;12.83;100.00;100223.81;7396344;19;20074;-65
2023/08/30 02:08:29;;;;;;;7.43;5.82;;;;;;;12.83;100.00;100223.81;7396210;19;20074;-65
2023/08/30 02:11:01;;;;;;;7.82;5.93;;;;;;;12.81;100.00;100215.13;7396199;19;20066;-65
2023/08/30 02:13:34;;;;;;;7.00;5.78;;;;;;;12.81;100.00;100220.38;7394840;19;20011;-65
2023/08/30 02:16:04;;;;;;;9.30;6.05;;;;;;;12.81;100.00;100225.66;7394877;19;20031;-65
2023/08/30 02:18:33;;;;;;;8.40;6.45;;;;;;;12.82;100.00;100223.88;7396119;19;20066;-65
2023/08/30 02:21:02;;;;;;;6.80;6.10;;;;;;;12.81;100.00;100216.91;7394418;19;20499;-65
2023/08/30 02:23:30;;;;;;;6.07;5.57;;;;;;;12.81;100.00;100214.28;7394857;19;20100;-65
2023/08/30 02:25:59;;;;;;;6.35;5.57;;;;;;;12.83;100.00;100213.28;7395994;19;20082;-65
2023/08/30 02:28:28;;;;;;;7.00;5.97;;;;;;;12.82;100.00;100208.94;7395972;19;20006;-65
2023/08/30 02:30:59;;;;;;;7.43;6.07;;;;;;;12.84;100.00;100211.53;7395523;19;20082;-65
2023/08/30 02:33:29;;;;;;;7.55;6.10;;;;;;;12.83;100.00;100205.41;7395372;19;20378;-65
2023/08/30 02:35:57;;;;;;;6.55;5.88;;;;;;;12.82;100.00;100187.03;7395057;19;20017;-65
2023/08/30 02:38:26;;;;;;;6.88;5.93;;;;;;;12.81;100.00;100185.31;7395800;19;20028;-64
2023/08/30 02:40:54;;;;;;;6.13;5.43;;;;;;;12.79;100.00;100188.00;7393312;19;20478;-65
2023/08/30 02:43:23;;;;;;;7.70;6.35;;;;;;;12.77;100.00;100184.56;7394300;19;20027;-65
2023/08/30 02:45:52;;;;;;;6.85;6.15;;;;;;;12.75;100.00;100182.91;7395348;19;20018;-65
2023/08/30 02:48:23;;;;;;;6.78;6.18;;;;;;;12.74;100.00;100179.44;7395172;19;20010;-64
2023/08/30 02:50:51;;;;;;;9.27;6.22;;;;;;;12.73;100.00;100172.47;7395508;19;20031;-65
2023/08/30 02:53:20;;;;;;;7.95;7.15;;;;;;;12.71;100.00;100166.38;7393927;19;20402;-65
2023/08/30 02:55:49;;;;;;;8.65;7.25;;;;;;;12.70;100.00;100167.31;7392758;19;20011;-65
2023/08/30 02:58:18;;;;;;;7.47;6.78;;;;;;;12.68;100.00;100156.00;7394926;19;20021;-65
2023/08/30 03:00:46;;;;;;;7.68;6.90;;;;;;;12.66;100.00;100165.72;7392727;19;20074;-65
2023/08/30 03:03:15;;;;;;;6.63;6.03;;;;;;;12.65;100.00;100169.25;7394075;19;20073;-65
2023/08/30 03:05:46;;;;;;;9.70;6.97;;;;;;;12.64;100.00;100172.84;7402011;19;20011;-65
2023/08/30 03:08:14;;;;;;;8.15;7.38;;;;;;;12.63;100.00;100177.22;7398793;19;20367;-65
2023/08/30 03:10:43;;;;;;;8.18;7.38;;;;;;;12.63;100.00;100174.59;7399137;19;20027;-65
2023/08/30 03:13:11;;;;;;;8.52;7.43;;;;;;;12.62;100.00;100164.97;7401147;19;20074;-65
2023/08/30 03:15:40;;;;;;;8.02;7.30;;;;;;;12.60;100.00;100171.22;7399097;19;20015;-65
2023/08/30 03:18:09;;;;;;;8.18;7.28;;;;;;;12.61;100.00;100171.19;7402031;19;20482;-65
2023/08/30 03:20:38;;;;;;;7.93;7.22;;;;;;;12.59;100.00;100180.91;7399085;19;20082;-66
2023/08/30 03:23:09;;;;;;;8.20;7.40;;;;;;;12.60;100.00;100185.25;7398731;19;20070;-65
2023/08/30 03:25:34;;;;;;;8.25;7.43;;;;;;;12.61;100.00;100200.13;7401994;19;20021;-65
2023/08/30 03:28:03;;;;;;;8.27;7.43;;;;;;;12.61;100.00;100186.09;7398920;19;20014;-65
2023/08/30 03:30:32;;;;;;;8.48;7.68;;;;;;;12.61;100.00;100189.59;7401240;19;20010;-65
2023/08/30 03:33:01;;;;;;;225.63;143.07;;;;;;;12.62;100.00;100190.44;7400491;19;20481;-66
2023/08/30 03:35:29;;;;;;;31.70;23.10;;;;;;;12.62;100.00;100185.19;7401335;19;20078;-65
2023/08/30 03:37:57;;;;;;;11.50;10.30;;;;;;;12.61;100.00;100194.00;7398602;19;20074;-65
2023/08/30 03:40:29;;;;;;;9.43;8.00;;;;;;;12.60;100.00;100202.78;7398624;19;20514;-65
2023/08/30 03:42:57;;;;;;;12.80;9.13;;;;;;;12.60;100.00;100197.53;7400610;19;20025;-65
2023/08/30 03:45:26;;;;;;;9.18;8.23;;;;;;;12.60;100.00;100203.69;7400453;19;20509;-65
2023/08/30 03:47:54;;;;;;;9.80;8.07;;;;;;;12.60;100.00;100198.41;7397930;19;20094;-65
2023/08/30 03:50:23;;;;;;;12.40;8.07;;;;;;;12.60;100.00;100194.91;7400769;19;20101;-65
2023/08/30 03:52:51;;;;;;;8.98;7.72;;;;;;;12.59;100.00;100193.22;7400362;19;20074;-65
2023/08/30 03:55:21;;;;;;;9.45;7.00;;;;;;;12.58;100.00;100194.13;7400582;19;20023;-66
2023/08/30 03:57:52;;;;;;;10.98;6.57;;;;;;;12.58;100.00;100196.75;7400910;19;20014;-65
2023/08/30 04:00:20;;;;;;;6.85;6.20;;;;;;;12.57;100.00;100189.78;7398985;19;20066;-65
2023/08/30 04:02:49;;;;;;;8.93;6.88;;;;;;;12.56;100.00;100194.16;7397501;19;20051;-65
2023/08/30 04:05:18;;;;;;;7.90;7.18;;;;;;;12.57;100.00;100188.00;7401308;19;20006;-65
2023/08/30 04:07:46;;;;;;;11.93;7.47;;;;;;;12.57;100.00;100189.78;7399817;19;20074;-65
2023/08/30 04:10:14;;;;;;;8.30;7.57;;;;;;;12.58;100.00;100196.75;7397910;19;20433;-65
2023/08/30 04:12:43;;;;;;;8.75;7.20;;;;;;;12.59;100.00;100190.59;7399491;19;20151;-65
2023/08/30 04:15:15;;;;;;;8.25;7.45;;;;;;;12.59;100.00;100193.22;7399416;19;20031;-65
2023/08/30 04:17:43;;;;;;;8.02;7.28;;;;;;;12.59;100.00;100194.06;7399517;19;20006;-65
2023/08/30 04:20:13;;;;;;;7.88;7.18;;;;;;;12.59;100.00;100194.06;7395819;19;20553;-65
2023/08/30 04:22:41;;;;;;;8.88;7.43;;;;;;;12.61;100.00;100194.00;7398792;19;20019;-65
2023/08/30 04:25:11;;;;;;;8.35;7.38;;;;;;;12.61;100.00;100200.13;7397288;19;20014;-66
2023/08/30 04:27:39;;;;;;;7.07;6.47;;;;;;;12.62;100.00;100200.97;7399637;19;20006;-65
2023/08/30 04:30:09;;;;;;;10.65;6.82;;;;;;;12.62;100.00;100195.72;7399130;19;20086;-65
2023/08/30 04:32:40;;;;;;;7.00;6.40;;;;;;;12.62;100.00;100214.13;7399021;19;20027;-65
2023/08/30 04:35:10;;;;;;;8.57;6.53;;;;;;;12.64;100.00;100214.94;7396884;19;20429;-65
2023/08/30 04:37:40;;;;;;;7.32;6.63;;;;;;;12.65;100.00;100221.91;7398566;19;20010;-65
2023/08/30 04:40:10;;;;;;;7.97;7.18;;;;;;;12.67;100.00;100225.34;7397746;19;20014;-66
2023/08/30 04:42:39;;;;;;;9.70;7.20;;;;;;;12.67;100.00;100215.66;7398593;19;20014;-65
2023/08/30 04:45:09;;;;;;;8.32;7.53;;;;;;;12.70;100.00;100225.22;7399045;19;20025;-65
2023/08/30 04:47:42;;;;;;;7.90;7.18;;;;;;;12.71;100.00;100225.16;7399444;19;20014;-66
2023/08/30 04:50:12;;;;;;;8.43;6.25;;;;;;;12.74;100.00;100232.09;7396430;19;20517;-65
2023/08/30 04:52:42;;;;;;;7.40;6.70;;;;;;;12.75;100.00;100227.66;7397691;19;20077;-65
2023/08/30 04:55:11;;;;;;;6.50;5.90;;;;;;;12.78;100.00;100230.19;7398803;19;20010;-66
2023/08/30 04:57:44;;;;;;;7.13;6.50;;;;;;;12.79;100.00;100237.16;7398345;19;20078;-65
2023/08/30 05:00:14;;;;;;;8.13;6.55;;;;;;;12.81;100.00;100230.91;7395483;19;20014;-65
2023/08/30 05:02:46;;;;;;;10.73;7.70;;;;;;;12.85;100.00;100242.19;7393831;19;20156;-66
2023/08/30 05:05:15;;;;;;;8.73;6.22;;;;;;;12.85;100.00;100236.91;7396990;19;20018;-65
2023/08/30 05:07:43;;;;;;;8.27;6.15;;;;;;;12.88;100.00;100232.38;7396715;19;20128;-65
2023/08/30 05:10:12;;;;;;;8.43;6.18;;;;;;;12.91;100.00;100234.03;7394166;19;20596;-65
2023/08/30 05:12:42;;;;;;;7.85;5.95;;;;;;;12.92;100.00;100224.38;7396973;19;20006;-65
2023/08/30 05:15:11;;;;;;;8.02;6.50;;;;;;;12.94;100.00;100226.03;7397525;19;20006;-65
2023/08/30 05:17:40;;;;;;;7.47;6.63;;;;;;;12.95;100.00;100221.63;7398019;19;20022;-66
2023/08/30 05:20:12;;;;;;;7.43;6.32;;;;;;;12.96;100.00;100220.72;7395621;19;20070;-65
2023/08/30 05:22:40;;;;;;;10.02;6.63;;;;;;;12.98;100.00;100218.88;7394136;19;20019;-66
2023/08/30 05:25:09;;;;;;;16.92;11.55;;;;;;;12.98;100.00;100213.63;7396900;19;20014;-67
2023/08/30 05:27:38;;;;;;;18.60;12.45;;;;;;;13.01;100.00;100206.41;7395432;19;20473;-64
2023/08/30 05:30:08;;;;;;;11.13;8.18;;;;;;;13.03;100.00;100212.50;7397180;19;20014;-66
2023/08/30 05:32:36;;;;;;;14.77;10.73;;;;;;;13.05;100.00;100207.16;7396857;19;20023;-66
2023/08/30 05:35:05;;;;;;;14.10;8.98;;;;;;;13.07;100.00;100207.09;7396432;19;20551;-66
2023/08/30 05:37:36;;;;;;;11.90;8.52;;;;;;;13.10;100.00;100209.63;7394547;19;20506;-66
2023/08/30 05:40:05;;;;;;;12.95;8.05;;;;;;;13.12;100.00;100213.91;7396234;19;20078;-66
2023/08/30 05:42:34;;;;;;;11.73;7.35;;;;;;;13.15;100.00;100216.41;7396497;19;20082;-64
2023/08/30 05:45:03;;;;;;;8.73;7.82;;;;;;;13.18;100.00;100218.91;7396087;19;20671;-65
2023/08/30 05:47:32;;;;;;;15.95;10.10;;;;;;;13.22;100.00;100224.03;7396234;19;20015;-64
2023/08/30 05:50:00;;;;;;;10.60;8.30;;;;;;;13.25;100.00;100219.50;7397507;19;20074;-65
2023/08/30 05:52:28;;;;;;;11.35;8.77;;;;;;;13.30;100.00;100217.53;7396702;19;20074;-65
2023/08/30 05:54:59;;;;;;;9.18;7.32;;;;;;;13.34;100.00;100213.00;7396809;19;20019;-67
2023/08/30 05:57:33;;;;;;;8.10;7.22;;;;;;;13.38;100.00;100217.25;7396819;19;20086;-65
2023/08/30 06:00:01;;;;;;;24.60;16.50;;;;;;;13.42;100.00;100216.22;7395934;19;20028;-65
2023/08/30 06:02:30;;;;;;;9.60;7.10;;;;;;;13.47;100.00;100210.75;7394104;19;20018;-65
2023/08/30 06:04:58;;;;;;;10.65;6.93;;;;;;;13.50;100.00;100211.47;7393300;19;20022;-65
2023/08/30 06:07:27;;;;;;;9.20;6.47;;;;;;;13.55;100.00;100216.56;7393618;19;20082;-65
2023/08/30 06:09:55;;;;;;;6.75;6.00;;;;;;;13.59;100.00;100209.38;7393478;19;20394;-66
2023/08/30 06:12:32;;;;;;;7.13;6.05;;;;;;;13.62;100.00;100209.25;7395721;19;20070;-65
2023/08/30 06:15:01;;;;;;;8.95;6.38;;;;;;;13.65;100.00;100203.84;7396180;19;20083;-65
2023/08/30 06:17:29;;;;;;;5.57;5.07;;;;;;;13.68;100.00;100203.69;7393372;19;20074;-65
2023/08/30 06:20:05;;;;;;;7.20;5.30;;;;;;;13.72;100.00;100199.16;7394653;19;20086;-65
2023/08/30 06:22:33;;;;;;;6.85;6.15;;;;;;;13.77;100.00;100191.91;7395483;19;20014;-65
2023/08/30 06:25:04;;;;;;;6.70;5.13;;;;;;;13.82;100.00;100187.28;7395147;19;20098;-65
2023/08/30 06:27:35;;;;;;;6.38;4.80;;;;;;;13.85;100.00;100182.72;7396738;19;20021;-64
2023/08/30 06:30:03;;;;;;;5.57;5.00;;;;;;;13.90;100.00;100186.94;7395403;19;20091;-65
2023/08/30 06:32:33;;;;;;;6.00;5.40;;;;;;;13.93;100.00;100186.81;7394863;19;20056;-65
2023/08/30 06:35:02;;;;;;;7.85;5.55;;;;;;;13.97;100.00;100183.13;7392864;19;20493;-65
2023/08/30 06:37:30;;;;;;;5.68;4.53;;;;;;;13.99;100.00;100189.19;7392927;19;20029;-65
2023/08/30 06:39:59;;;;;;;6.00;4.70;;;;;;;14.02;100.00;100181.13;7392480;19;20078;-64
2023/08/30 06:42:27;;;;;;;7.07;4.57;;;;;;;14.06;100.00;100185.31;7394433;19;20556;-65
2023/08/30 06:44:58;;;;;;;4.82;4.43;;;;;;;14.09;100.00;100186.97;7393209;19;20074;-65
2023/08/30 06:47:27;;;;;;;5.18;4.22;;;;;;;14.12;100.00;100184.19;7394942;19;20552;-67
2023/08/30 06:49:55;;;;;;;7.90;4.47;;;;;;;14.15;100.00;100189.31;7395435;19;20010;-63
2023/08/30 06:52:24;;;;;;;8.05;4.60;;;;;;;14.18;100.00;100184.78;7394310;19;20119;-69
2023/08/30 06:54:53;;;;;;;5.15;4.03;;;;;;;14.22;100.00;100182.00;7392824;19;20517;-72
2023/08/30 06:57:22;;;;;;;5.70;4.40;;;;;;;14.26;100.00;100188.84;7394340;19;20419;-69
2023/08/30 06:59:50;;;;;;;7.95;4.68;;;;;;;14.28;100.00;100181.69;7394412;19;20077;-69
2023/08/30 07:02:21;;;;;;;5.25;4.57;;;;;;;14.31;100.00;100174.50;7394860;19;20083;-71
2023/08/30 07:04:50;;;;;;;4.97;4.55;;;;;;;14.36;100.00;100173.47;7392410;19;20433;-69
2023/08/30 07:07:18;;;;;;;9.00;5.55;;;;;;;14.40;100.00;100180.28;7392305;19;20368;-69
2023/08/30 07:09:47;;;;;;;6.03;5.03;;;;;;;14.44;100.00;100181.84;7394100;19;20174;-69
2023/08/30 07:12:15;;;;;;;7.40;4.32;;;;;;;14.47;100.00;100177.28;7393876;19;20031;-69
2023/08/30 07:14:44;;;;;;;7.47;5.97;;;;;;;14.52;100.00;100173.56;7391744;19;20477;-70
2023/08/30 07:17:12;;;;;;;8.52;6.10;;;;;;;14.57;100.00;100180.34;7394154;19;20070;-69
2023/08/30 07:19:43;;;;;;;7.30;5.10;;;;;;;14.61;100.00;100176.63;7394051;19;20069;-69
2023/08/30 07:22:12;;;;;;;4.75;4.15;;;;;;;14.67;100.00;100178.16;7391694;19;20460;-69
2023/08/30 07:24:40;;;;;;;4.30;3.90;;;;;;;14.71;100.00;100176.22;7392003;19;20077;-69
2023/08/30 07:27:09;;;;;;;8.88;6.35;;;;;;;14.75;100.00;100178.66;7393708;19;20018;-68
2023/08/30 07:29:37;;;;;;;9.40;4.72;;;;;;;14.80;99.83;100179.28;7391496;19;20015;-69
2023/08/30 07:32:06;;;;;;;5.57;4.10;;;;;;;14.85;99.89;100187.00;7393626;19;20017;-69
2023/08/30 07:34:35;;;;;;;8.70;6.38;;;;;;;14.89;99.23;100187.69;7392441;19;20096;-69
2023/08/30 07:37:06;;;;;;;9.23;7.43;;;;;;;14.92;99.07;100184.91;7393338;19;20422;-69
2023/08/30 07:39:35;;;;;;;4.88;4.40;;;;;;;14.96;99.10;100194.38;7393382;19;20413;-69
2023/08/30 07:42:03;;;;;;;10.63;7.00;;;;;;;14.99;98.52;100188.97;7393083;19;20007;-69
2023/08/30 07:44:31;;;;;;;5.15;4.38;;;;;;;15.03;98.70;100190.50;7390963;19;20027;-69
2023/08/30 07:47:00;;;;;;;6.65;5.95;;;;;;;15.07;98.59;100192.06;7392607;19;20162;-71
2023/08/30 07:49:28;;;;;;;7.18;5.30;;;;;;;15.11;98.37;100191.00;7395129;19;20010;-69
2023/08/30 07:51:57;;;;;;;5.18;4.63;;;;;;;15.15;97.94;100189.91;7400228;19;20032;-71
2023/08/30 07:54:28;;;;;;;7.43;5.43;;;;;;;15.19;98.03;100205.59;7397595;19;20015;-69
2023/08/30 07:56:56;;;;;;;6.30;4.97;;;;;;;15.23;97.61;100202.72;7399982;19;20532;-70
2023/08/30 07:59:25;;;;;;;6.22;4.45;;;;;;;15.26;97.22;100202.56;7400299;19;20081;-70
2023/08/30 08:01:53;;;;;;;6.88;5.63;;;;;;;15.29;97.24;100202.44;7398581;19;20070;-69
2023/08/30 08:04:21;;;;;;;6.65;5.93;;;;;;;15.36;97.16;100202.13;7397815;19;20481;-69
2023/08/30 08:06:50;;;;;;;8.68;6.78;;;;;;;15.43;96.72;100203.50;7398054;19;20032;-68
2023/08/30 08:09:18;;;;;;;6.25;5.65;;;;;;;15.51;96.65;100200.50;7399783;19;20018;-69
2023/08/30 08:11:51;;;;;;;9.60;8.68;;;;;;;15.56;96.62;100199.31;7399849;19;20010;-69
2023/08/30 08:14:19;;;;;;;7.22;6.07;;;;;;;15.64;96.48;100198.91;7398248;19;20066;-71
2023/08/30 08:16:48;;;;;;;6.95;5.45;;;;;;;15.71;95.92;100197.69;7397584;19;20429;-69
2023/08/30 08:19:16;;;;;;;7.50;6.18;;;;;;;15.78;95.95;100193.78;7399703;19;20022;-69
2023/08/30 08:21:45;;;;;;;7.55;5.72;;;;;;;15.89;95.67;100195.03;7397684;19;20022;-69
2023/08/30 08:24:13;;;;;;;6.32;4.80;;;;;;;15.98;95.35;100191.91;7397730;19;20019;-69
2023/08/30 08:26:41;;;;;;;6.43;5.35;;;;;;;16.08;95.29;100190.47;7399179;19;20158;-69
2023/08/30 08:29:12;;;;;;;6.22;5.18;;;;;;;16.21;94.62;100187.16;7395928;19;20070;-69
2023/08/30 08:31:42;;;;;;;7.13;4.85;;;;;;;16.32;94.36;100184.78;7399717;19;20011;-69
2023/08/30 08:34:15;;;;;;;5.45;4.70;;;;;;;16.45;93.23;100175.25;7397671;19;20027;-68
2023/08/30 08:36:45;;;;;;;9.33;5.90;;;;;;;16.57;92.82;100184.28;7399344;19;20028;-69
2023/08/30 08:39:14;;;;;;;5.10;4.60;;;;;;;16.70;92.30;100188.91;7399142;19;20078;-69
2023/08/30 08:41:44;;;;;;;7.07;3.95;;;;;;;16.83;90.98;100186.41;7396389;19;20418;-69
2023/08/30 08:44:15;;;;;;;5.55;4.00;;;;;;;16.95;90.40;100183.09;7397299;19;20014;-69
2023/08/30 08:46:44;;;;;;;5.82;3.78;;;;;;;17.06;89.59;100185.97;7399370;19;20255;-69
2023/08/30 08:49:16;;;;;;;4.85;4.30;;;;;;;17.19;88.56;100183.47;7398138;19;20078;-69
2023/08/30 08:51:45;;;;;;;6.93;3.95;;;;;;;17.33;88.09;100180.00;7397014;19;20017;-68
2023/08/30 08:54:15;;;;;;;8.27;3.70;;;;;;;17.47;87.15;100181.84;7396485;19;20021;-69
2023/08/30 08:56:43;;;;;;;5.05;3.65;;;;;;;17.59;86.27;100172.28;7398690;19;20015;-69
2023/08/30 08:59:14;;;;;;;7.07;3.60;;;;;;;17.72;85.95;100169.75;7395714;19;20018;-68
2023/08/30 09:01:43;;;;;;;4.63;3.72;;;;;;;17.86;85.14;100180.38;7394640;19;20070;-68
2023/08/30 09:04:13;;;;;;;3.92;3.15;;;;;;;17.95;84.85;100176.34;7396467;19;20096;-68
2023/08/30 09:06:43;;;;;;;5.50;3.60;;;;;;;18.05;84.25;100172.16;7397992;19;20079;-68
2023/08/30 09:09:12;;;;;;;3.97;3.22;;;;;;;18.14;83.04;100177.84;7398013;19;20039;-68
2023/08/30 09:11:40;;;;;;;3.40;2.95;;;;;;;18.20;82.65;100174.81;7397541;19;20014;-69
2023/08/30 09:14:08;;;;;;;4.28;3.05;;;;;;;18.27;82.17;100186.72;7395553;19;20011;-69
2023/08/30 09:16:40;;;;;;;5.38;3.25;;;;;;;18.32;81.39;100174.00;7397101;19;20086;-69
2023/08/30 09:19:10;;;;;;;4.80;2.97;;;;;;;18.39;81.11;100169.19;7394892;19;20070;-71
2023/08/30 09:21:38;;;;;;;4.00;2.47;;;;;;;18.46;80.66;100170.47;7396456;19;20022;-69
2023/08/30 09:24:09;;;;;;;4.55;2.50;;;;;;;18.54;80.53;100172.69;7395266;19;20432;-69
2023/08/30 09:26:39;;;;;;;6.88;2.42;;;;;;;18.60;79.45;100172.25;7395248;19;20011;-69
2023/08/30 09:29:08;;;;;;;3.45;2.80;;;;;;;18.65;79.49;100175.50;7396683;19;20015;-69
2023/08/30 09:31:40;;;;;;;4.45;2.13;;;;;;;18.69;79.28;100174.34;7396809;19;20031;-68
2023/08/30 09:34:10;;;;;;;4.78;2.42;;;;;;;18.73;79.03;100173.16;7395586;19;20015;-69
2023/08/30 09:36:39;;;;;;;3.75;2.83;;;;;;;18.80;79.35;100170.13;7397147;19;20070;-69
2023/08/30 09:39:09;;;;;;;3.03;2.50;;;;;;;18.85;78.94;100171.50;7396461;19;20014;-67
2023/08/30 09:41:38;;;;;;;7.53;3.10;;;;;;;18.91;78.75;100174.78;7394493;19;20506;-70
2023/08/30 09:44:10;;;;;;;3.72;3.20;;;;;;;18.95;78.16;100174.44;7393990;19;20014;-69
2023/08/30 09:46:46;;;;;;;3.10;2.55;;;;;;;18.99;77.32;100165.34;7395956;19;20018;-69
2023/08/30 09:49:15;;;;;;;3.45;2.95;;;;;;;19.02;77.31;100169.59;7394316;19;20022;-69
2023/08/30 09:51:46;;;;;;;5.05;3.20;;;;;;;19.07;77.45;100164.81;7395653;19;20549;-69
2023/08/30 09:54:18;;;;;;;6.10;3.22;;;;;;;19.13;77.36;100155.56;7394388;19;20014;-69
2023/08/30 09:56:47;;;;;;;4.32;3.00;;;;;;;19.17;77.06;100159.72;7396336;19;20015;-68
2023/08/30 09:59:17;;;;;;;4.35;2.70;;;;;;;19.21;76.60;100156.75;7395793;19;20073;-69
2023/08/30 10:01:52;;;;;;;5.32;2.72;;;;;;;19.26;76.21;100148.50;7394959;19;20010;-69
2023/08/30 10:04:22;;;;;;;4.80;2.45;;;;;;;19.28;76.09;100143.91;7394030;19;20018;-69
2023/08/30 10:06:51;;;;;;;3.33;3.00;;;;;;;19.30;75.47;100149.13;7394965;19;20092;-68
2023/08/30 10:09:21;;;;;;;5.00;3.67;;;;;;;19.33;75.83;100144.44;7395501;19;20015;-69
2023/08/30 10:11:51;;;;;;;4.18;2.63;;;;;;;19.36;74.57;100138.06;7393372;19;20014;-69
2023/08/30 10:14:20;;;;;;;5.53;3.55;;;;;;;19.40;74.91;100141.34;7394535;19;20019;-69
2023/08/30 10:16:54;;;;;;;6.72;4.60;;;;;;;19.49;74.45;100148.72;7395513;19;20077;-69
2023/08/30 10:19:26;;;;;;;5.97;3.10;;;;;;;19.58;74.49;100137.44;7393303;19;20078;-70
2023/08/30 10:22:03;;;;;;;7.20;5.00;;;;;;;19.68;74.33;100140.31;7395003;19;20014;-69
2023/08/30 10:24:34;;;;;;;5.57;4.32;;;;;;;19.75;73.19;100138.94;7394677;19;20831;-70
2023/08/30 10:27:07;;;;;;;5.53;2.60;;;;;;;19.78;72.39;100135.22;7395267;19;20024;-69
2023/08/30 10:29:37;;;;;;;4.63;3.40;;;;;;;19.79;72.53;100135.09;7392509;19;20081;-68
2023/08/30 10:32:09;;;;;;;4.13;2.88;;;;;;;19.82;72.20;100132.25;7395295;19;20098;-69
2023/08/30 10:34:39;;;;;;;3.60;3.15;;;;;;;19.85;71.71;100139.16;7393012;19;20070;-69
2023/08/30 10:37:10;;;;;;;4.53;3.90;;;;;;;19.84;71.91;100137.44;7393733;19;20085;-69
2023/08/30 10:39:40;;;;;;;3.88;3.58;;;;;;;19.83;72.46;100143.75;7394098;19;20514;-69
2023/08/30 10:42:13;;;;;;;4.80;3.53;;;;;;;19.80;72.10;100142.13;7393096;19;20022;-69
2023/08/30 10:44:51;;;;;;;5.93;3.40;;;;;;;19.80;72.13;100146.59;7392834;19;20437;-69
2023/08/30 10:47:26;;;;;;;5.38;3.75;;;;;;;19.75;72.13;100149.59;7394464;19;20019;-69
2023/08/30 10:49:56;;;;;;;3.90;3.50;;;;;;;19.75;72.26;100151.38;7394628;19;20014;-69
2023/08/30 10:52:25;;;;;;;3.80;3.25;;;;;;;19.72;72.05;100152.44;7394825;19;20014;-69
2023/08/30 10:54:54;;;;;;;9.32;6.10;;;;;;;19.70;71.81;100151.69;7394040;19;20078;-69
2023/08/30 10:57:26;;;;;;;4.18;3.30;;;;;;;19.69;71.84;100161.50;7394705;19;20021;-69
2023/08/30 11:00:13;;;;;;;3.40;2.63;;;;;;;19.69;71.32;100164.16;7393523;19;20079;-68
2023/08/30 11:02:47;;;;;;;4.97;3.08;;;;;;;19.68;71.45;100153.63;7391939;19;20011;-67
2023/08/30 11:05:17;;;;;;;4.63;2.90;;;;;;;19.67;71.45;100155.41;7394025;19;20011;-67
2023/08/30 11:07:46;;;;;;;5.28;3.13;;;;;;;19.65;71.13;100154.69;7393855;19;20015;-69
2023/08/30 11:10:16;;;;;;;5.35;3.33;;;;;;;19.64;71.21;100157.47;7393125;19;20027;-69
2023/08/30 11:12:44;;;;;;;4.40;3.53;;;;;;;19.63;71.38;100156.59;7392922;19;20011;-69
2023/08/30 11:15:15;;;;;;;4.60;2.90;;;;;;;19.62;71.44;100154.88;7393407;19;20022;-67
2023/08/30 11:17:47;;;;;;;5.15;3.42;;;;;;;19.60;71.46;100154.16;7392942;19;20340;-66
2023/08/30 11:20:19;;;;;;;3.72;2.72;;;;;;;19.59;71.28;100160.44;7391852;19;20383;-66
2023/08/30 11:22:49;;;;;;;4.13;3.30;;;;;;;19.57;71.09;100165.00;7390972;19;20026;-67
2023/08/30 11:25:18;;;;;;;3.97;3.25;;;;;;;19.55;70.98;100158.94;7397561;19;20534;-65
2023/08/30 11:27:47;;;;;;;4.72;3.80;;;;;;;19.56;70.79;100159.78;7397512;19;20010;-65
2023/08/30 11:30:16;;;;;;;3.90;3.08;;;;;;;19.56;70.91;100154.47;7400466;19;20086;-65